Time;durP1;ratioP1;P1;durP2;ratioP2;P2;SDS_P1;SDS_P2;PMS_P1;PMS_P2;Temp;Humidity;BMP_temperature;BMP_pressure;BME280_temperature;BME280_humidity;BME280_pressure;Samples;Min_cycle;Max_cycle;Signal;HPM_P1;HPM_P2
2022/10/29 00:00:07;;;;;;;24.70;6.93;;;16.50;80.30;;;;;;9178527;19;20071;-72
2022/10/29 00:03:13;;;;;;;15.07;5.40;;;16.50;80.50;;;;;;9177701;19;20092;-72
2022/10/29 00:06:17;;;;;;;17.75;6.03;;;16.50;80.70;;;;;;9178604;19;20819;-71
2022/10/29 00:09:20;;;;;;;19.52;6.55;;;16.40;80.70;;;;;;9178704;19;20019;-71
2022/10/29 00:12:24;;;;;;;24.80;6.68;;;16.40;80.80;;;;;;9174213;19;20056;-71
2022/10/29 00:15:28;;;;;;;23.50;6.65;;;16.40;81.00;;;;;;9177399;19;20597;-70
2022/10/29 00:18:33;;;;;;;18.38;5.43;;;16.40;80.80;;;;;;9176015;19;20074;-70
2022/10/29 00:21:38;;;;;;;15.15;5.47;;;16.30;80.70;;;;;;9172615;19;20029;-72
2022/10/29 00:24:42;;;;;;;19.83;5.78;;;16.30;81.00;;;;;;9176009;19;20047;-72
2022/10/29 00:27:45;;;;;;;15.68;5.47;;;16.30;80.90;;;;;;9178399;19;20066;-72
2022/10/29 00:30:49;;;;;;;19.45;5.50;;;16.20;81.00;;;;;;9174975;19;20528;-72
2022/10/29 00:33:56;;;;;;;27.92;5.93;;;16.20;81.00;;;;;;9176110;19;20082;-71
2022/10/29 00:36:59;;;;;;;21.17;6.07;;;16.20;81.10;;;;;;9177408;19;20015;-72
2022/10/29 00:40:03;;;;;;;21.30;5.80;;;16.20;81.10;;;;;;9177401;19;20029;-72
2022/10/29 00:43:13;;;;;;;;;;;16.10;81.50;;;;;;9177535;19;20018;-72
2022/10/29 00:46:22;;;;;;;16.60;4.88;;;16.10;80.80;;;;;;9175030;19;19927;-71
2022/10/29 00:49:28;;;;;;;23.58;5.47;;;16.00;80.70;;;;;;9178009;19;20049;-73
2022/10/29 00:52:35;;;;;;;14.52;5.07;;;16.00;80.90;;;;;;9172662;19;20490;-70
2022/10/29 00:55:39;;;;;;;18.63;7.10;;;16.00;80.90;;;;;;9176854;19;20042;-71
2022/10/29 00:58:43;;;;;;;17.13;5.45;;;15.90;80.80;;;;;;9175877;19;20045;-69
2022/10/29 01:01:48;;;;;;;18.02;5.40;;;15.90;81.00;;;;;;9175352;19;20412;-72
2022/10/29 01:04:54;;;;;;;17.05;5.47;;;15.90;81.20;;;;;;9173639;19;20050;-73
2022/10/29 01:07:58;;;;;;;20.73;5.93;;;15.80;81.20;;;;;;9174443;19;20646;-72
2022/10/29 01:11:12;;;;;;;19.38;5.28;;;15.80;81.20;;;;;;9173001;19;20022;-71
2022/10/29 01:14:25;;;;;;;13.55;5.72;;;15.70;81.20;;;;;;9173518;19;20512;-70
2022/10/29 01:17:37;;;;;;;10.88;4.80;;;15.70;81.20;;;;;;9175600;19;20419;-73
2022/10/29 01:21:19;;;;;;;16.98;5.43;;;15.70;81.60;;;;;;9173786;19;20093;-72
2022/10/29 01:24:54;;;;;;;15.63;5.22;;;15.60;81.10;;;;;;9173635;19;20018;-72
2022/10/29 01:28:12;;;;;;;15.20;5.38;;;15.60;81.20;;;;;;9175322;19;20018;-71
2022/10/29 01:31:29;;;;;;;18.13;5.72;;;15.60;81.40;;;;;;9171130;19;20023;-71
2022/10/29 01:34:40;;;;;;;22.10;7.50;;;15.50;81.50;;;;;;9175783;19;20042;-70
2022/10/29 01:38:05;;;;;;;16.95;5.43;;;15.40;81.20;;;;;;9175948;19;20029;-72
2022/10/29 01:41:16;;;;;;;18.00;6.65;;;15.40;81.30;;;;;;9173920;19;20018;-71
2022/10/29 01:44:31;;;;;;;18.80;6.30;;;15.40;81.50;;;;;;9182687;19;20014;-72
2022/10/29 01:47:41;;;;;;;19.90;5.93;;;15.40;81.60;;;;;;9182610;19;20123;-72
2022/10/29 01:50:48;;;;;;;21.42;6.75;;;15.30;81.40;;;;;;9181265;19;20081;-72
2022/10/29 01:53:52;;;;;;;20.13;6.45;;;15.30;81.50;;;;;;9182578;19;20019;-71
2022/10/29 01:56:57;;;;;;;13.65;6.50;;;15.20;81.40;;;;;;9182712;19;20061;-69
2022/10/29 02:00:08;;;;;;;16.45;6.50;;;15.20;81.60;;;;;;9182608;19;20093;-71
2022/10/29 02:03:34;;;;;;;21.58;6.72;;;15.20;81.70;;;;;;9182104;19;20482;-69
2022/10/29 02:06:51;;;;;;;17.40;6.88;;;15.10;81.90;;;;;;9180143;19;20056;-71
2022/10/29 02:10:03;;;;;;;16.35;6.90;;;15.10;81.70;;;;;;9181874;19;20022;-71
2022/10/29 02:13:08;;;;;;;20.05;7.20;;;15.00;81.70;;;;;;9182246;19;20029;-70
2022/10/29 02:16:14;;;;;;;14.68;7.30;;;15.00;81.70;;;;;;9181482;19;20674;-71
2022/10/29 02:19:20;;;;;;;21.02;7.70;;;14.90;81.60;;;;;;9182337;19;20501;-71
2022/10/29 02:22:23;;;;;;;19.40;8.18;;;14.90;81.80;;;;;;9175494;19;20475;-72
2022/10/29 02:25:27;;;;;;;28.67;8.13;;;14.90;81.80;;;;;;9181226;19;20038;-71
2022/10/29 02:28:35;;;;;;;20.23;7.05;;;14.80;81.70;;;;;;9181333;19;20021;-72
2022/10/29 02:31:39;;;;;;;12.23;6.18;;;14.80;81.80;;;;;;9178475;19;20759;-71
2022/10/29 02:34:44;;;;;;;15.95;6.43;;;14.80;82.10;;;;;;9181199;19;20018;-71
2022/10/29 02:37:48;;;;;;;15.43;6.40;;;14.70;81.70;;;;;;9181590;19;20015;-71
2022/10/29 02:40:51;;;;;;;18.08;7.20;;;14.70;81.80;;;;;;9181122;19;20105;-71
2022/10/29 02:43:55;;;;;;;21.60;5.70;;;14.70;81.90;;;;;;9181006;19;20018;-71
2022/10/29 02:46:59;;;;;;;18.42;6.88;;;14.60;81.80;;;;;;9180691;19;20011;-71
2022/10/29 02:50:05;;;;;;;17.90;6.65;;;14.60;82.10;;;;;;9180733;19;20038;-72
2022/10/29 02:53:08;;;;;;;16.52;5.97;;;14.60;81.90;;;;;;9179151;19;20019;-70
2022/10/29 02:56:12;;;;;;;13.20;5.80;;;14.50;81.80;;;;;;9179496;19;20026;-72
2022/10/29 02:59:16;;;;;;;23.48;6.28;;;14.50;82.00;;;;;;9178885;19;20018;-71
2022/10/29 03:02:19;;;;;;;21.70;6.38;;;14.50;82.30;;;;;;9181614;19;20039;-71
2022/10/29 03:05:25;;;;;;;15.85;6.13;;;14.40;82.00;;;;;;9176196;19;20048;-71
2022/10/29 03:08:29;;;;;;;11.77;5.88;;;14.40;81.90;;;;;;9175977;19;20052;-71
2022/10/29 03:11:33;;;;;;;15.70;6.00;;;14.30;82.00;;;;;;9176247;19;20339;-71
2022/10/29 03:14:36;;;;;;;19.48;6.38;;;14.30;82.00;;;;;;9178175;19;20018;-71
2022/10/29 03:17:40;;;;;;;16.52;6.10;;;14.30;82.10;;;;;;9179936;19;20015;-72
2022/10/29 03:20:46;;;;;;;13.10;5.82;;;14.30;82.30;;;;;;9179347;19;20030;-72
2022/10/29 03:23:50;;;;;;;11.70;5.57;;;14.20;82.20;;;;;;9175789;19;20026;-69
2022/10/29 03:26:53;;;;;;;15.25;5.57;;;14.20;82.20;;;;;;9178108;19;20098;-71
2022/10/29 03:29:58;;;;;;;19.00;5.82;;;14.20;82.30;;;;;;9179694;19;20406;-70
2022/10/29 03:33:01;;;;;;;11.35;5.50;;;14.10;82.30;;;;;;9178701;19;20018;-71
2022/10/29 03:36:08;;;;;;;18.50;5.30;;;14.10;82.30;;;;;;9178080;19;20026;-71
2022/10/29 03:39:12;;;;;;;12.95;5.35;;;14.00;82.30;;;;;;9180360;19;20015;-71
2022/10/29 03:42:16;;;;;;;12.43;5.20;;;14.00;82.30;;;;;;9176891;19;20022;-71
2022/10/29 03:45:19;;;;;;;19.17;6.00;;;14.00;82.40;;;;;;9179146;19;20468;-71
2022/10/29 03:48:24;;;;;;;10.15;5.13;;;14.00;82.30;;;;;;9177618;19;20019;-70
2022/10/29 03:51:30;;;;;;;18.70;6.18;;;13.90;82.20;;;;;;9176688;19;20011;-71
2022/10/29 03:54:33;;;;;;;33.45;7.00;;;13.90;82.30;;;;;;9179111;19;20751;-69
2022/10/29 03:57:37;;;;;;;19.52;5.55;;;13.90;82.20;;;;;;9179388;19;20018;-71
2022/10/29 04:00:41;;;;;;;16.50;6.40;;;13.90;82.50;;;;;;9178813;19;20078;-71
2022/10/29 04:03:44;;;;;;;17.85;6.40;;;13.90;82.30;;;;;;9174655;19;20078;-71
2022/10/29 04:06:50;;;;;;;17.00;5.95;;;13.80;82.50;;;;;;9176846;19;20408;-70
2022/10/29 04:09:54;;;;;;;14.85;6.07;;;13.80;82.60;;;;;;9178348;19;20006;-70
2022/10/29 04:12:57;;;;;;;14.07;5.40;;;13.80;82.40;;;;;;9174799;19;20014;-72
2022/10/29 04:16:01;;;;;;;18.73;6.40;;;13.80;82.40;;;;;;9178098;19;20014;-72
2022/10/29 04:19:05;;;;;;;22.52;5.40;;;13.70;82.60;;;;;;9178777;19;20015;-70
2022/10/29 04:22:11;;;;;;;;;;;13.70;82.40;;;;;;9174083;19;20494;-71
2022/10/29 04:25:34;;;;;;;16.95;5.00;;;13.70;82.50;;;;;;9177111;19;20269;-72
2022/10/29 04:28:58;;;;;;;22.27;6.67;;;13.70;82.40;;;;;;9177257;19;20022;-71
2022/10/29 04:32:02;;;;;;;18.40;6.53;;;13.60;82.40;;;;;;9173775;19;20018;-70
2022/10/29 04:35:06;;;;;;;17.05;6.82;;;13.60;82.30;;;;;;9177388;19;20019;-71
2022/10/29 04:38:13;;;;;;;22.67;6.72;;;13.60;82.50;;;;;;9175758;19;20010;-70
2022/10/29 04:41:16;;;;;;;25.85;6.78;;;13.60;82.70;;;;;;9177005;19;20056;-69
2022/10/29 04:44:20;;;;;;;28.90;7.65;;;13.60;82.70;;;;;;9177858;19;20011;-72
2022/10/29 04:47:24;;;;;;;28.58;8.05;;;13.60;82.70;;;;;;9176958;19;20014;-71
2022/10/29 04:50:28;;;;;;;16.77;6.53;;;13.60;82.70;;;;;;9175441;19;20011;-72
2022/10/29 04:53:34;;;;;;;27.55;7.47;;;13.60;82.80;;;;;;9175149;19;20055;-71
2022/10/29 04:56:37;;;;;;;21.38;7.25;;;13.60;82.80;;;;;;9175790;19;20717;-71
2022/10/29 04:59:41;;;;;;;19.95;7.07;;;13.60;83.00;;;;;;9174404;19;20064;-71
2022/10/29 05:02:48;;;;;;;22.83;7.53;;;13.60;83.00;;;;;;9176546;19;20020;-72
2022/10/29 05:05:52;;;;;;;21.30;7.72;;;13.60;82.90;;;;;;9172251;19;20015;-71
2022/10/29 05:08:57;;;;;;;22.88;7.25;;;13.60;82.90;;;;;;9176536;19;20018;-70
2022/10/29 05:12:01;;;;;;;20.55;6.78;;;13.60;83.00;;;;;;9173504;19;20387;-71
2022/10/29 05:15:06;;;;;;;14.25;6.07;;;13.60;83.00;;;;;;9176018;19;20027;-71
2022/10/29 05:18:11;;;;;;;18.52;6.40;;;13.60;83.00;;;;;;9182488;19;20842;-71
2022/10/29 05:21:14;;;;;;;21.23;6.53;;;13.60;83.00;;;;;;9178851;19;20010;-71
2022/10/29 05:24:20;;;;;;;14.88;6.47;;;13.60;83.10;;;;;;9184189;19;20511;-71
2022/10/29 05:27:23;;;;;;;21.05;6.63;;;13.60;83.20;;;;;;9183416;19;20022;-70
2022/10/29 05:30:27;;;;;;;19.17;7.90;;;13.60;83.10;;;;;;9182758;19;20018;-72
2022/10/29 05:33:31;;;;;;;14.77;6.10;;;13.60;83.20;;;;;;9177239;19;20375;-71
2022/10/29 05:36:34;;;;;;;19.67;6.60;;;13.60;83.10;;;;;;9177363;19;20081;-71
2022/10/29 05:39:40;;;;;;;16.38;6.32;;;13.60;83.10;;;;;;9178420;19;20018;-72
2022/10/29 05:42:43;;;;;;;20.90;6.90;;;13.60;83.20;;;;;;9178474;19;20447;-72
2022/10/29 05:45:50;;;;;;;12.15;5.22;;;13.60;83.20;;;;;;9180631;19;20010;-71
2022/10/29 05:48:54;;;;;;;16.48;7.25;;;13.60;83.30;;;;;;9180719;19;20495;-72
2022/10/29 05:51:57;;;;;;;17.42;6.30;;;13.60;83.20;;;;;;9179318;19;20637;-72
2022/10/29 05:55:03;;;;;;;16.13;5.95;;;13.60;83.30;;;;;;9183920;19;20045;-70
2022/10/29 05:58:08;;;;;;;16.67;6.43;;;13.60;83.20;;;;;;9182148;19;20074;-71
2022/10/29 06:01:12;;;;;;;18.75;7.80;;;13.60;83.30;;;;;;9181403;19;20031;-72
2022/10/29 06:04:16;;;;;;;;;;;13.50;83.20;;;;;;9182299;19;20018;-71
2022/10/29 06:07:19;;;;;;;15.27;6.07;;;13.60;83.40;;;;;;9182264;19;19930;-71
2022/10/29 06:10:26;;;;;;;15.50;6.68;;;13.50;83.40;;;;;;9182828;19;20086;-70
2022/10/29 06:13:30;;;;;;;18.35;7.32;;;13.50;83.30;;;;;;9182879;19;20340;-71
2022/10/29 06:16:33;;;;;;;17.55;7.13;;;13.50;83.30;;;;;;9181754;19;20429;-70
2022/10/29 06:19:37;;;;;;;17.95;6.65;;;13.60;83.50;;;;;;9182411;19;20082;-69
2022/10/29 06:22:41;;;;;;;23.45;7.75;;;13.50;83.50;;;;;;9175148;19;20018;-73
2022/10/29 06:25:46;;;;;;;19.83;7.30;;;13.60;83.50;;;;;;9179811;19;20167;-72
2022/10/29 06:28:50;;;;;;;20.85;7.55;;;13.50;83.40;;;;;;9178795;19;20378;-70
2022/10/29 06:31:54;;;;;;;23.35;8.07;;;13.60;83.50;;;;;;9180495;19;20060;-70
2022/10/29 06:34:57;;;;;;;21.40;8.18;;;13.60;83.50;;;;;;9181242;19;20384;-70
2022/10/29 06:38:02;;;;;;;23.27;7.90;;;13.60;83.70;;;;;;9181506;19;20102;-71
2022/10/29 06:41:12;;;;;;;23.85;7.90;;;13.60;83.80;;;;;;9182066;19;20337;-71
2022/10/29 06:44:16;;;;;;;22.25;8.70;;;13.60;84.40;;;;;;9182141;19;20018;-71
2022/10/29 06:47:20;;;;;;;18.65;7.75;;;13.60;83.70;;;;;;9181443;19;20025;-71
2022/10/29 06:50:24;;;;;;;22.60;7.97;;;13.60;83.70;;;;;;9178421;19;20018;-71
2022/10/29 06:53:28;;;;;;;22.20;8.20;;;13.60;83.80;;;;;;9177061;19;20452;-71
2022/10/29 06:56:34;;;;;;;19.20;7.88;;;13.60;83.80;;;;;;9180577;19;20023;-69
2022/10/29 06:59:38;;;;;;;23.83;9.25;;;13.60;84.00;;;;;;9180153;19;20050;-71
2022/10/29 07:02:41;;;;;;;24.55;9.85;;;13.60;84.00;;;;;;9179444;19;20048;-71
2022/10/29 07:05:45;;;;;;;23.10;9.32;;;13.60;84.00;;;;;;9175103;19;20015;-72
2022/10/29 07:08:48;;;;;;;;;;;13.70;84.10;;;;;;9180222;19;20070;-70
2022/10/29 07:11:54;;;;;;;23.40;8.95;;;13.70;84.70;;;;;;9178385;19;20314;-72
2022/10/29 07:14:58;;;;;;;21.63;9.68;;;13.70;83.90;;;;;;9180479;19;20369;-71
2022/10/29 07:18:03;;;;;;;26.55;10.98;;;13.80;84.10;;;;;;9180669;19;20351;-71
2022/10/29 07:21:08;;;;;;;31.90;10.45;;;13.80;84.20;;;;;;9175148;19;20090;-71
2022/10/29 07:24:12;;;;;;;25.50;10.88;;;13.80;84.40;;;;;;9179910;19;20027;-73
2022/10/29 07:27:17;;;;;;;27.08;10.82;;;13.90;84.50;;;;;;9180006;19;20017;-71
2022/10/29 07:30:22;;;;;;;24.80;10.77;;;13.90;84.40;;;;;;9178767;19;20026;-71
2022/10/29 07:33:26;;;;;;;27.50;12.40;;;13.90;84.50;;;;;;9174626;19;20022;-72
2022/10/29 07:36:31;;;;;;;32.25;11.35;;;14.00;84.70;;;;;;9179278;19;20015;-72
2022/10/29 07:39:34;;;;;;;38.33;13.07;;;14.10;84.90;;;;;;9175325;19;20033;-70
2022/10/29 07:42:40;;;;;;;32.33;11.63;;;14.10;85.40;;;;;;9179798;19;20010;-71
2022/10/29 07:45:48;;;;;;;36.05;11.70;;;14.10;84.90;;;;;;9175070;19;20014;-71
2022/10/29 07:48:52;;;;;;;23.27;10.80;;;14.10;84.80;;;;;;9172072;19;20022;-71
2022/10/29 07:51:55;;;;;;;26.17;10.63;;;14.20;84.90;;;;;;9171024;19;20022;-70
2022/10/29 07:55:01;;;;;;;29.23;12.15;;;14.30;85.00;;;;;;9174646;19;20723;-71
2022/10/29 07:58:09;;;;;;;31.20;12.00;;;14.30;85.10;;;;;;9174780;19;20018;-71
2022/10/29 08:01:12;;;;;;;27.38;12.55;;;14.30;85.10;;;;;;9170271;19;20043;-72
2022/10/29 08:04:16;;;;;;;;;;;14.40;85.20;;;;;;9171530;19;20020;-71
2022/10/29 08:07:20;;;;;;;30.15;12.65;;;14.50;85.10;;;;;;9169729;19;19952;-72
2022/10/29 08:10:24;;;;;;;30.85;13.15;;;14.50;85.00;;;;;;9171549;19;21029;-72
2022/10/29 08:13:29;;;;;;;;;;;14.50;85.10;;;;;;9164726;19;20094;-71
2022/10/29 08:16:33;;;;;;;26.08;11.52;;;14.60;85.10;;;;;;9171743;19;20345;-71
2022/10/29 08:19:36;;;;;;;27.67;12.57;;;14.60;85.00;;;;;;9170581;19;20014;-71
2022/10/29 08:22:40;;;;;;;31.23;12.15;;;14.70;85.20;;;;;;9166147;19;20011;-71
2022/10/29 08:25:44;;;;;;;;;;;14.80;85.20;;;;;;9170553;19;20014;-71
2022/10/29 08:28:49;;;;;;;31.40;13.25;;;14.80;85.20;;;;;;9174101;19;19927;-70
2022/10/29 08:31:53;;;;;;;34.05;12.20;;;14.80;85.00;;;;;;9175951;19;20011;-71
2022/10/29 08:34:57;;;;;;;33.63;12.48;;;14.90;85.20;;;;;;9175652;19;20018;-72
2022/10/29 08:38:01;;;;;;;34.38;13.63;;;14.90;85.20;;;;;;9176904;19;20015;-71
2022/10/29 08:41:35;;;;;;;31.17;13.52;;;15.00;85.40;;;;;;9177492;19;20025;-72
2022/10/29 08:45:00;;;;;;;34.42;15.68;;;15.10;85.70;;;;;;9175126;19;20034;-70
2022/10/29 08:48:26;;;;;;;31.48;15.45;;;15.10;85.60;;;;;;9176834;19;20423;-70
2022/10/29 08:51:34;;;;;;;31.63;15.60;;;15.20;85.70;;;;;;9173791;19;20371;-70
2022/10/29 08:54:42;;;;;;;42.80;17.05;;;15.20;85.50;;;;;;9175003;19;20490;-71
2022/10/29 08:57:52;;;;;;;42.92;17.58;;;15.30;85.70;;;;;;9176666;19;20052;-71
2022/10/29 09:00:59;;;;;;;45.55;17.23;;;15.30;85.80;;;;;;9175804;19;20038;-71
2022/10/29 09:04:04;;;;;;;48.83;20.17;;;15.40;86.00;;;;;;9175343;19;20046;-71
2022/10/29 09:07:33;;;;;;;50.72;19.27;;;15.50;86.10;;;;;;9176988;19;20502;-72
2022/10/29 09:10:42;;;;;;;51.47;18.23;;;15.60;86.50;;;;;;9174452;19;20015;-71
2022/10/29 09:13:56;;;;;;;54.60;20.33;;;15.70;86.30;;;;;;9173337;19;20085;-72
2022/10/29 09:17:03;;;;;;;;;;;15.80;86.50;;;;;;9176881;19;20028;-71
2022/10/29 09:20:24;;;;;;;47.97;20.73;;;15.90;86.30;;;;;;9175651;19;20360;-72
2022/10/29 09:23:39;;;;;;;55.50;21.52;;;16.00;86.40;;;;;;9168891;19;20026;-72
2022/10/29 09:26:53;;;;;;;47.33;20.15;;;16.20;87.10;;;;;;9175644;19;20494;-72
2022/10/29 09:30:06;;;;;;;47.08;19.58;;;16.30;86.60;;;;;;9173935;19;20086;-72
2022/10/29 09:33:16;;;;;;;53.90;20.38;;;16.40;86.70;;;;;;9173065;19;20704;-72
2022/10/29 09:36:22;;;;;;;47.17;20.00;;;16.60;86.80;;;;;;9175112;19;20034;-72
2022/10/29 09:39:33;;;;;;;52.78;19.77;;;16.70;86.90;;;;;;9175372;19;20086;-71
2022/10/29 09:42:40;;;;;;;45.90;18.23;;;16.90;86.90;;;;;;9171371;19;20014;-71
2022/10/29 09:45:49;;;;;;;42.83;17.70;;;17.00;86.90;;;;;;9175205;19;20015;-73
2022/10/29 09:49:02;;;;;;;53.60;17.58;;;17.20;87.00;;;;;;9174986;19;20015;-70
2022/10/29 09:52:11;;;;;;;46.47;18.33;;;17.30;87.10;;;;;;9172309;19;20023;-70
2022/10/29 09:55:21;;;;;;;47.65;17.05;;;17.50;87.10;;;;;;9174264;19;20089;-72
2022/10/29 09:58:27;;;;;;;37.17;15.20;;;17.70;87.10;;;;;;9173999;19;20046;-73
2022/10/29 10:01:31;;;;;;;41.90;13.88;;;17.90;87.10;;;;;;9176403;19;20471;-72
2022/10/29 10:04:45;;;;;;;44.55;14.35;;;18.10;87.00;;;;;;9181454;19;20022;-72
2022/10/29 10:08:07;;;;;;;36.15;12.32;;;18.20;87.00;;;;;;9182589;19;20047;-72
2022/10/29 10:11:20;;;;;;;30.45;11.98;;;18.40;86.80;;;;;;9181786;19;20024;-72
2022/10/29 10:14:26;;;;;;;20.83;10.93;;;18.60;86.50;;;;;;9183539;19;20014;-72
2022/10/29 10:17:32;;;;;;;34.60;11.65;;;18.70;86.30;;;;;;9180423;19;20078;-71
2022/10/29 10:20:41;;;;;;;33.65;11.77;;;18.90;86.10;;;;;;9182734;19;20022;-71
2022/10/29 10:23:47;;;;;;;36.20;11.85;;;19.10;86.10;;;;;;9177644;19;20014;-73
2022/10/29 10:26:50;;;;;;;27.17;9.70;;;19.20;85.90;;;;;;9181395;19;20468;-72
2022/10/29 10:30:14;;;;;;;28.45;11.63;;;19.30;85.70;;;;;;9181957;19;20066;-73
2022/10/29 10:33:25;;;;;;;47.20;11.93;;;19.40;85.50;;;;;;9180153;19;20014;-72
2022/10/29 10:36:31;;;;;;;25.13;10.38;;;19.50;85.50;;;;;;9178938;19;20018;-72
2022/10/29 10:39:37;;;;;;;22.63;9.15;;;19.60;85.20;;;;;;9180646;19;20015;-71
2022/10/29 10:42:46;;;;;;;27.42;9.68;;;19.70;85.10;;;;;;9179523;19;20490;-71
2022/10/29 10:45:55;;;;;;;20.50;9.38;;;19.70;85.00;;;;;;9178833;19;20094;-71
2022/10/29 10:49:01;;;;;;;32.70;9.75;;;19.80;84.90;;;;;;9181570;19;20121;-73
2022/10/29 10:52:15;;;;;;;21.45;9.02;;;19.90;84.90;;;;;;9181337;19;20039;-74
2022/10/29 10:55:25;;;;;;;18.98;8.38;;;20.00;84.70;;;;;;9181162;19;20015;-72
2022/10/29 10:58:32;;;;;;;23.08;8.23;;;20.10;84.70;;;;;;9181120;19;20015;-73
2022/10/29 11:01:39;;;;;;;21.73;8.15;;;20.10;84.50;;;;;;9178365;19;20018;-72
2022/10/29 11:04:44;;;;;;;20.73;7.28;;;20.20;84.50;;;;;;9178768;19;20019;-72
2022/10/29 11:07:58;;;;;;;24.33;7.47;;;20.30;84.30;;;;;;9180370;19;20019;-72
2022/10/29 11:11:06;;;;;;;23.45;7.38;;;20.30;84.10;;;;;;9179730;19;20022;-72
2022/10/29 11:14:16;;;;;;;24.95;7.00;;;20.30;84.00;;;;;;9175156;19;20113;-73
2022/10/29 11:17:28;;;;;;;21.70;7.13;;;20.40;83.90;;;;;;9179546;19;20018;-72
2022/10/29 11:20:35;;;;;;;28.10;7.68;;;20.40;83.80;;;;;;9179118;19;20021;-71
2022/10/29 11:23:47;;;;;;;21.20;8.57;;;20.50;83.70;;;;;;9173629;19;20025;-73
2022/10/29 11:26:56;;;;;;;30.75;8.02;;;20.50;83.60;;;;;;9178820;19;20150;-73
2022/10/29 11:30:05;;;;;;;22.35;6.90;;;20.60;83.60;;;;;;9178674;19;20026;-70
2022/10/29 11:33:18;;;;;;;18.25;6.18;;;20.60;83.40;;;;;;9176974;19;20421;-73
2022/10/29 11:36:23;;;;;;;24.50;9.07;;;20.60;83.30;;;;;;9178642;19;20448;-71
2022/10/29 11:39:34;;;;;;;22.70;7.35;;;20.60;83.20;;;;;;9178198;19;20018;-71
2022/10/29 11:42:38;;;;;;;21.15;6.97;;;20.70;83.10;;;;;;9175470;19;20048;-73
2022/10/29 11:45:52;;;;;;;24.40;6.75;;;20.60;83.10;;;;;;9172457;19;20019;-71
2022/10/29 11:49:07;;;;;;;17.95;6.82;;;20.70;82.90;;;;;;9173853;19;20483;-72
2022/10/29 11:52:14;;;;;;;21.20;7.13;;;20.70;82.80;;;;;;9172948;19;20403;-73
2022/10/29 11:55:28;;;;;;;24.40;7.68;;;20.80;82.70;;;;;;9171037;19;20021;-73
2022/10/29 11:58:38;;;;;;;19.23;7.82;;;20.80;82.50;;;;;;9172959;19;20022;-72
2022/10/29 12:01:53;;;;;;;21.52;7.60;;;20.80;82.60;;;;;;9171834;19;20050;-73
2022/10/29 12:05:02;;;;;;;33.25;7.28;;;20.80;82.40;;;;;;9171007;19;20026;-70
2022/10/29 12:08:30;;;;;;;31.50;7.50;;;20.90;82.60;;;;;;9171787;19;20014;-70
2022/10/29 12:11:42;;;;;;;17.52;6.75;;;20.90;82.20;;;;;;9172192;19;20021;-73
2022/10/29 12:14:51;;;;;;;22.23;6.32;;;21.00;82.20;;;;;;9172449;19;20018;-73
2022/10/29 12:18:05;;;;;;;24.27;7.97;;;21.00;82.20;;;;;;9174005;19;20539;-71
2022/10/29 12:21:14;;;;;;;22.33;6.30;;;21.00;82.00;;;;;;9173982;19;20355;-71
2022/10/29 12:24:32;;;;;;;26.10;6.28;;;21.00;81.90;;;;;;9174052;19;20018;-74
2022/10/29 12:27:43;;;;;;;20.90;6.22;;;21.00;81.70;;;;;;9177366;19;20474;-75
2022/10/29 12:30:58;;;;;;;24.92;6.97;;;21.10;81.70;;;;;;9172149;19;20082;-74
2022/10/29 12:34:06;;;;;;;19.60;5.47;;;21.10;81.70;;;;;;9173695;19;20077;-76
2022/10/29 12:37:16;;;;;;;16.08;6.18;;;21.10;81.50;;;;;;9176883;19;20614;-76
2022/10/29 12:40:23;;;;;;;16.70;5.85;;;21.10;81.50;;;;;;9177620;19;20094;-75
2022/10/29 12:43:32;;;;;;;16.25;5.47;;;21.20;81.40;;;;;;9174712;19;20022;-73
2022/10/29 12:46:42;;;;;;;19.77;6.22;;;21.20;81.30;;;;;;9177957;19;20013;-72
2022/10/29 12:49:54;;;;;;;27.35;7.32;;;21.20;81.20;;;;;;9176341;19;20101;-72
2022/10/29 12:53:05;;;;;;;27.92;7.50;;;21.30;81.10;;;;;;9174885;19;20022;-74
2022/10/29 12:56:12;;;;;;;22.92;6.45;;;21.30;81.00;;;;;;9175862;19;20018;-72
2022/10/29 12:59:31;;;;;;;20.35;6.65;;;21.30;81.00;;;;;;9175327;19;20022;-73
2022/10/29 13:02:47;;;;;;;17.58;6.10;;;21.30;80.70;;;;;;9172960;19;20020;-73
2022/10/29 13:05:51;;;;;;;20.30;5.93;;;21.30;80.60;;;;;;9170399;19;20048;-72
2022/10/29 13:08:57;;;;;;;18.08;5.78;;;21.30;80.70;;;;;;9175042;19;20018;-72
2022/10/29 13:12:02;;;;;;;33.20;6.22;;;21.30;80.70;;;;;;9175427;19;20022;-73
2022/10/29 13:15:14;;;;;;;17.88;5.38;;;21.30;80.70;;;;;;9176339;19;20074;-73
2022/10/29 13:18:23;;;;;;;16.90;5.18;;;21.40;80.60;;;;;;9177770;19;20109;-73
2022/10/29 13:21:57;;;;;;;20.30;5.78;;;21.40;80.60;;;;;;9173342;19;20416;-72
2022/10/29 13:25:29;;;;;;;19.25;5.60;;;21.40;80.30;;;;;;9179056;19;20098;-73
2022/10/29 13:28:49;;;;;;;14.00;4.75;;;21.40;80.30;;;;;;9179203;19;20014;-72
2022/10/29 13:31:55;;;;;;;21.10;4.97;;;21.50;80.40;;;;;;9176192;19;20515;-74
2022/10/29 13:35:27;;;;;;;19.13;5.28;;;21.50;80.40;;;;;;9175822;19;20007;-73
2022/10/29 13:38:44;;;;;;;20.50;5.07;;;21.50;80.40;;;;;;9182692;19;20018;-73
2022/10/29 13:42:13;;;;;;;22.67;4.97;;;21.50;80.20;;;;;;9183968;19;20019;-72
2022/10/29 13:45:20;;;;;;;14.18;5.07;;;21.60;80.20;;;;;;9178787;19;20022;-74
2022/10/29 13:48:29;;;;;;;18.52;4.95;;;21.60;80.20;;;;;;9181352;19;20015;-75
2022/10/29 13:51:41;;;;;;;20.13;4.85;;;21.60;80.00;;;;;;9183587;19;20006;-74
2022/10/29 13:54:51;;;;;;;11.20;4.90;;;21.60;80.60;;;;;;9181918;19;20456;-74
2022/10/29 13:58:03;;;;;;;12.40;4.30;;;21.70;80.00;;;;;;9182535;19;20090;-75
2022/10/29 14:01:12;;;;;;;26.52;5.25;;;21.70;80.10;;;;;;9183709;19;20086;-72
2022/10/29 14:04:25;;;;;;;17.20;4.95;;;21.70;80.10;;;;;;9181947;19;20044;-71
2022/10/29 14:07:34;;;;;;;12.00;4.68;;;21.70;79.90;;;;;;9181043;19;20023;-73
2022/10/29 14:10:46;;;;;;;15.68;4.22;;;21.70;79.70;;;;;;9180658;19;20351;-73
2022/10/29 14:13:52;;;;;;;13.40;4.57;;;21.70;79.60;;;;;;9179426;19;20086;-73
2022/10/29 14:17:12;;;;;;;15.65;4.78;;;21.70;79.50;;;;;;9180389;19;20515;-73
2022/10/29 14:20:26;;;;;;;17.73;4.88;;;21.70;79.30;;;;;;9180617;19;20048;-77
2022/10/29 14:23:31;;;;;;;17.20;4.53;;;21.70;79.30;;;;;;9177098;19;20841;-74
2022/10/29 14:26:40;;;;;;;19.27;4.45;;;21.70;79.30;;;;;;9179654;19;20022;-75
2022/10/29 14:29:43;;;;;;;23.45;5.93;;;21.60;79.20;;;;;;9179894;19;20006;-70
2022/10/29 14:32:47;;;;;;;27.77;5.15;;;21.60;79.30;;;;;;9177970;19;20025;-70
2022/10/29 14:35:51;;;;;;;10.82;4.60;;;21.60;79.30;;;;;;9179768;19;20048;-71
2022/10/29 14:38:58;;;;;;;22.50;5.05;;;21.50;79.20;;;;;;9180072;19;20471;-70
2022/10/29 14:42:05;;;;;;;20.50;5.10;;;21.50;79.10;;;;;;9180461;19;20525;-72
2022/10/29 14:45:18;;;;;;;14.60;4.30;;;21.50;79.10;;;;;;9182131;19;20210;-73
2022/10/29 14:48:22;;;;;;;16.05;4.95;;;21.50;79.00;;;;;;9179991;19;20044;-71
2022/10/29 14:51:27;;;;;;;18.55;4.97;;;21.50;79.20;;;;;;9180270;19;20094;-71
2022/10/29 14:54:36;;;;;;;22.45;4.40;;;21.50;79.10;;;;;;9179000;19;20014;-72
2022/10/29 14:57:46;;;;;;;17.33;3.95;;;21.40;79.00;;;;;;9174198;19;20010;-71
2022/10/29 15:00:56;;;;;;;20.83;4.75;;;21.40;79.00;;;;;;9176116;19;20007;-70
2022/10/29 15:04:01;;;;;;;19.58;6.22;;;21.40;79.00;;;;;;9172970;19;20022;-71
2022/10/29 15:07:30;;;;;;;12.75;4.50;;;21.30;79.20;;;;;;9173690;19;20792;-70
2022/10/29 15:10:45;;;;;;;19.42;5.40;;;21.30;78.90;;;;;;9174601;19;20070;-70
2022/10/29 15:13:51;;;;;;;15.93;4.75;;;21.20;78.90;;;;;;9171470;19;20599;-71
2022/10/29 15:16:55;;;;;;;20.70;5.05;;;21.20;79.00;;;;;;9173893;19;20015;-69
2022/10/29 15:20:01;;;;;;;24.92;5.90;;;21.10;79.00;;;;;;9171455;19;20365;-71
2022/10/29 15:23:16;;;;;;;22.15;6.43;;;21.10;78.90;;;;;;9170066;19;20051;-71
2022/10/29 15:26:21;;;;;;;17.70;5.85;;;21.10;79.00;;;;;;9173880;19;20499;-70
2022/10/29 15:29:29;;;;;;;14.68;4.90;;;21.10;79.60;;;;;;9174117;19;20472;-72
2022/10/29 15:32:39;;;;;;;19.10;4.82;;;21.00;78.80;;;;;;9172805;19;20014;-69
2022/10/29 15:35:50;;;;;;;14.85;4.78;;;21.00;78.80;;;;;;9175081;19;20013;-70
2022/10/29 15:39:26;;;;;;;20.55;4.57;;;20.90;78.80;;;;;;9174342;19;20006;-70
2022/10/29 15:42:32;;;;;;;13.85;4.60;;;20.90;78.60;;;;;;9173853;19;20018;-73
2022/10/29 15:45:38;;;;;;;16.58;4.88;;;20.90;78.80;;;;;;9172201;19;20014;-72
2022/10/29 15:48:42;;;;;;;13.85;4.85;;;20.80;78.80;;;;;;9174380;19;20022;-72
2022/10/29 15:51:45;;;;;;;12.85;4.75;;;20.80;78.80;;;;;;9172498;19;20614;-71
2022/10/29 15:54:49;;;;;;;10.70;4.47;;;20.70;78.80;;;;;;9171851;19;20015;-71
2022/10/29 15:57:53;;;;;;;;;;;20.70;78.80;;;;;;9172410;19;20026;-71
2022/10/29 16:00:59;;;;;;;24.23;4.60;;;20.70;78.90;;;;;;9170425;19;20007;-71
2022/10/29 16:04:03;;;;;;;11.48;4.55;;;20.60;78.80;;;;;;9172035;19;20086;-72
2022/10/29 16:07:09;;;;;;;15.15;4.65;;;20.60;78.80;;;;;;9171418;19;20026;-71